createdAt,value
2019-04-26T00:00:46.513Z,1010.3
2019-04-26T00:01:46.568Z,1010.2
2019-04-26T00:02:46.575Z,1010.2
2019-04-26T00:03:48.850Z,1010.3
2019-04-26T00:04:47.800Z,1010.3
2019-04-26T00:05:46.681Z,1010.3
2019-04-26T00:06:46.715Z,1010.3
2019-04-26T00:07:46.762Z,1010.3
2019-04-26T00:08:46.950Z,1010.3
2019-04-26T00:09:46.861Z,1010.3
2019-04-26T00:10:46.854Z,1010.3
2019-04-26T00:11:46.964Z,1010.2
2019-04-26T00:12:46.877Z,1010.2
2019-04-26T00:13:46.886Z,1010.2
2019-04-26T00:14:46.944Z,1010.2
2019-04-26T00:15:46.927Z,1010.2
2019-04-26T00:16:46.962Z,1010.3
2019-04-26T00:17:46.997Z,1010.3
2019-04-26T00:18:47.165Z,1010.3
2019-04-26T00:19:47.060Z,1010.2
2019-04-26T00:20:47.063Z,1010.3
2019-04-26T00:21:49.700Z,1010.2
2019-04-26T00:22:47.131Z,1010.2
2019-04-26T00:23:47.187Z,1010.2
2019-04-26T00:24:47.193Z,1010.1
2019-04-26T00:25:47.191Z,1010.2
2019-04-26T00:26:47.259Z,1010.2
2019-04-26T00:27:47.267Z,1010.2
2019-04-26T00:28:47.269Z,1010.1
2019-04-26T00:29:47.365Z,1010.2
2019-04-26T00:30:47.305Z,1010.2
2019-04-26T00:31:47.320Z,1010.1
2019-04-26T00:32:47.400Z,1010.2
2019-04-26T00:33:47.347Z,1010.1
2019-04-26T00:34:47.386Z,1010.1
2019-04-26T00:35:48.183Z,1010.1
2019-04-26T00:36:47.394Z,1010.1
2019-04-26T00:37:47.391Z,1010.1
2019-04-26T00:38:47.476Z,1010
2019-04-26T00:39:47.439Z,1010.1
2019-04-26T00:40:47.451Z,1010
2019-04-26T00:41:47.490Z,1010
2019-04-26T00:42:47.455Z,1010.1
2019-04-26T00:43:47.460Z,1010
2019-04-26T00:44:50.696Z,1010.1
2019-04-26T00:45:47.492Z,1010.1
2019-04-26T00:46:47.652Z,1010
2019-04-26T00:47:47.507Z,1010.1
2019-04-26T00:48:47.488Z,1010.1
2019-04-26T00:49:47.486Z,1010.1
2019-04-26T00:50:47.484Z,1010.1
2019-04-26T00:51:47.536Z,1010.1
2019-04-26T00:52:47.699Z,1010
2019-04-26T00:53:47.675Z,1010.1
2019-04-26T00:54:47.724Z,1010
2019-04-26T00:55:47.860Z,1010.1
2019-04-26T00:56:47.871Z,1010
2019-04-26T00:57:47.899Z,1010
2019-04-26T00:58:47.931Z,1010.1
2019-04-26T00:59:48.154Z,1010.1
2019-04-26T01:00:48.049Z,1010.1
2019-04-26T01:01:48.160Z,1010
2019-04-26T01:02:48.200Z,1009.9
2019-04-26T01:03:48.258Z,1010
2019-04-26T01:04:48.332Z,1009.9
2019-04-26T01:05:59.481Z,1009.9
2019-04-26T01:06:48.453Z,1009.8
2019-04-26T01:07:48.357Z,1009.8
2019-04-26T01:08:51.027Z,1009.8
2019-04-26T01:09:48.447Z,1009.8
2019-04-26T01:10:48.539Z,1009.9
2019-04-26T01:11:48.555Z,1009.7
2019-04-26T01:12:48.634Z,1009.7
2019-04-26T01:13:48.649Z,1009.7
2019-04-26T01:14:48.714Z,1009.7
2019-04-26T01:15:48.755Z,1009.8
2019-04-26T01:16:48.787Z,1009.6
2019-04-26T01:17:48.824Z,1009.7
2019-04-26T01:18:48.825Z,1009.7
2019-04-26T01:19:48.850Z,1009.7
2019-04-26T01:20:48.904Z,1009.6
2019-04-26T01:21:49.000Z,1009.7
2019-04-26T01:22:48.977Z,1009.7
2019-04-26T01:23:49.106Z,1009.7
2019-04-26T01:24:49.187Z,1009.7
2019-04-26T01:25:49.185Z,1009.7
2019-04-26T01:26:49.166Z,1009.7
2019-04-26T01:27:49.220Z,1009.7
2019-04-26T01:28:49.260Z,1009.7
2019-04-26T01:29:49.353Z,1009.7
2019-04-26T01:30:49.524Z,1009.6
2019-04-26T01:31:49.387Z,1009.8
2019-04-26T01:32:49.352Z,1009.7
2019-04-26T01:33:49.405Z,1009.6
2019-04-26T01:34:49.539Z,1009.7
2019-04-26T01:35:49.513Z,1009.6
2019-04-26T01:36:49.544Z,1009.7
2019-04-26T01:37:49.588Z,1009.7
2019-04-26T01:38:49.660Z,1009.8
2019-04-26T01:39:49.695Z,1009.7
2019-04-26T01:40:49.787Z,1009.7
2019-04-26T01:41:49.733Z,1009.7
2019-04-26T01:42:49.787Z,1009.7
2019-04-26T01:43:49.839Z,1009.6
2019-04-26T01:44:49.884Z,1009.7
2019-04-26T01:45:49.885Z,1009.7
2019-04-26T01:46:49.924Z,1009.7
2019-04-26T01:47:50.007Z,1009.7
2019-04-26T01:48:49.994Z,1009.6
2019-04-26T01:49:50.045Z,1009.6
2019-04-26T01:50:50.127Z,1009.5
2019-04-26T01:51:50.330Z,1009.6
2019-04-26T01:52:50.175Z,1009.6
2019-04-26T01:53:50.288Z,1009.6
2019-04-26T01:54:50.275Z,1009.5
2019-04-26T01:55:50.267Z,1009.6
2019-04-26T01:56:50.306Z,1009.5
2019-04-26T01:57:50.354Z,1009.6
2019-04-26T01:58:50.417Z,1009.5
2019-04-26T01:59:50.441Z,1009.5
2019-04-26T02:00:50.424Z,1009.5
2019-04-26T02:01:50.424Z,1009.5
2019-04-26T02:02:50.454Z,1009.5
2019-04-26T02:03:50.475Z,1009.5
2019-04-26T02:04:50.530Z,1009.5
2019-04-26T02:05:50.555Z,1009.5
2019-04-26T02:06:50.567Z,1009.5
2019-04-26T02:07:50.653Z,1009.6
2019-04-26T02:08:50.615Z,1009.6
2019-04-26T02:09:50.713Z,1009.6
2019-04-26T02:10:50.645Z,1009.6
2019-04-26T02:11:50.652Z,1009.7
2019-04-26T02:12:50.701Z,1009.6
2019-04-26T02:13:50.681Z,1009.7
2019-04-26T02:14:50.770Z,1009.6
2019-04-26T02:15:50.733Z,1009.6
2019-04-26T02:16:50.727Z,1009.7
2019-04-26T02:17:50.803Z,1009.6
2019-04-26T02:18:50.809Z,1009.5
2019-04-26T02:19:50.791Z,1009.6
2019-04-26T02:20:50.925Z,1009.6
2019-04-26T02:21:50.778Z,1009.6
2019-04-26T02:22:50.799Z,1009.5
2019-04-26T02:23:50.823Z,1009.5
2019-04-26T02:24:50.834Z,1009.5
2019-04-26T02:25:50.830Z,1009.5
2019-04-26T02:26:50.850Z,1009.6
2019-04-26T02:27:50.855Z,1009.5
2019-04-26T02:28:50.867Z,1009.6
2019-04-26T02:29:50.868Z,1009.6
2019-04-26T02:30:50.896Z,1009.5
2019-04-26T02:31:53.203Z,1009.5
2019-04-26T02:32:50.992Z,1009.5
2019-04-26T02:33:51.005Z,1009.5
2019-04-26T02:34:50.929Z,1011.5
2019-04-26T02:35:50.910Z,1009.6
2019-04-26T02:36:57.525Z,1009.5
2019-04-26T02:37:50.922Z,1009.4
2019-04-26T02:38:50.947Z,1009.5
2019-04-26T02:39:51.013Z,1009.5
2019-04-26T02:40:51.086Z,1009.5
2019-04-26T02:41:51.129Z,1009.5
2019-04-26T02:42:51.187Z,1009.5
2019-04-26T02:43:51.197Z,1009.5
2019-04-26T02:44:51.242Z,1009.5
2019-04-26T02:45:51.333Z,1009.6
2019-04-26T02:46:51.365Z,1009.6
2019-04-26T02:47:51.429Z,1009.6
2019-04-26T02:48:51.488Z,1009.6
2019-04-26T02:49:51.542Z,1009.6
2019-04-26T02:50:51.566Z,1009.6
2019-04-26T02:51:51.638Z,1009.5
2019-04-26T02:52:51.708Z,1009.5
2019-04-26T02:53:51.800Z,1009.5
2019-04-26T02:54:51.815Z,1009.6
2019-04-26T02:55:51.909Z,1009.6
2019-04-26T02:56:51.907Z,1009.5
2019-04-26T02:57:52.078Z,1009.6
2019-04-26T02:58:52.004Z,1009.6
2019-04-26T02:59:52.090Z,1009.5
2019-04-26T03:00:52.125Z,1009.6
2019-04-26T03:01:52.156Z,1009.6
2019-04-26T03:02:52.250Z,1009.6
2019-04-26T03:03:53.643Z,1009.6
2019-04-26T03:04:52.358Z,1009.6
2019-04-26T03:05:52.369Z,1009.5
2019-04-26T03:07:02.736Z,1009.6
2019-04-26T03:07:52.490Z,1009.6
2019-04-26T03:08:52.560Z,1009.6
2019-04-26T03:09:52.566Z,1009.6
2019-04-26T03:10:52.637Z,1009.4
2019-04-26T03:11:52.689Z,1009.6
2019-04-26T03:12:52.900Z,1009.6
2019-04-26T03:13:52.737Z,1009.5
2019-04-26T03:14:52.785Z,1009.5
2019-04-26T03:15:52.881Z,1009.6
2019-04-26T03:16:52.846Z,1009.5
2019-04-26T03:17:52.912Z,1009.5
2019-04-26T03:18:52.903Z,1009.5
2019-04-26T03:19:52.952Z,1009.5
2019-04-26T03:20:52.999Z,1009.6
2019-04-26T03:21:53.025Z,1009.6
2019-04-26T03:22:53.090Z,1009.6
2019-04-26T03:23:58.411Z,1009.6
2019-04-26T03:24:53.177Z,1009.6
2019-04-26T03:25:53.149Z,1009.6
2019-04-26T03:26:53.154Z,1009.6
2019-04-26T03:27:53.150Z,1009.5
2019-04-26T03:28:53.278Z,1009.5
2019-04-26T03:30:04.984Z,1009.4
2019-04-26T03:30:53.614Z,1009.4
2019-04-26T03:31:55.043Z,1009.4
2019-04-26T03:32:54.086Z,1009.6
2019-04-26T03:33:54.589Z,1009.4
2019-04-26T03:34:55.099Z,1009.4
2019-04-26T03:35:57.448Z,1009.5
2019-04-26T03:36:53.500Z,1009.5
2019-04-26T03:37:53.544Z,1009.5
2019-04-26T03:38:53.568Z,1009.5
2019-04-26T03:39:53.717Z,1009.6
2019-04-26T03:40:53.654Z,1009.5
2019-04-26T03:41:53.714Z,1009.5
2019-04-26T03:42:53.814Z,1009.6
2019-04-26T03:43:53.782Z,1009.5
2019-04-26T03:44:53.833Z,1009.6
2019-04-26T03:45:53.863Z,1009.5
2019-04-26T03:46:53.892Z,1009.5
2019-04-26T03:47:53.945Z,1009.5
2019-04-26T03:48:53.964Z,1009.6
2019-04-26T03:49:54.488Z,1009.5
2019-04-26T03:50:54.071Z,1009.5
2019-04-26T03:51:54.026Z,1009.5
2019-04-26T03:52:54.059Z,1009.5
2019-04-26T03:53:54.055Z,1009.5
2019-04-26T03:54:54.100Z,1009.5
2019-04-26T03:55:54.121Z,1009.6
2019-04-26T03:56:54.278Z,1009.5
2019-04-26T03:57:54.295Z,1009.5
2019-04-26T03:58:54.253Z,1009.5
2019-04-26T03:59:54.430Z,1009.6
2019-04-26T04:00:54.347Z,1009.5
2019-04-26T04:01:54.357Z,1009.5
2019-04-26T04:02:54.368Z,1009.4
2019-04-26T04:03:54.437Z,1009.6
2019-04-26T04:04:54.676Z,1009.5
2019-04-26T04:05:54.475Z,1009.5
2019-04-26T04:07:03.531Z,1009.5
2019-04-26T04:07:54.531Z,1009.4
2019-04-26T04:08:54.558Z,1009.5
2019-04-26T04:09:54.561Z,1009.6
2019-04-26T04:10:54.641Z,1009.5
2019-04-26T04:12:09.953Z,1009.5
2019-04-26T04:12:54.820Z,1009.5
2019-04-26T04:13:54.776Z,1009.5
2019-04-26T04:14:54.711Z,1009.6
2019-04-26T04:15:54.743Z,1009.5
2019-04-26T04:16:54.825Z,1009.5
2019-04-26T04:17:54.774Z,1009.6
2019-04-26T04:18:54.796Z,1009.5
2019-04-26T04:19:54.935Z,1009.6
2019-04-26T04:20:54.841Z,1009.6
2019-04-26T04:21:54.857Z,1009.6
2019-04-26T04:22:54.889Z,1009.6
2019-04-26T04:23:55.007Z,1009.6
2019-04-26T04:24:54.959Z,1009.6
2019-04-26T04:25:54.962Z,1009.7
2019-04-26T04:26:55.156Z,1009.6
2019-04-26T04:27:54.985Z,1009.6
2019-04-26T04:28:55.084Z,1009.6
2019-04-26T04:29:55.708Z,1009.6
2019-04-26T04:30:55.046Z,1009.7
2019-04-26T04:31:55.068Z,1009.6
2019-04-26T04:32:55.106Z,1009.6
2019-04-26T04:33:55.118Z,1009.6
2019-04-26T04:34:55.138Z,1009.7
2019-04-26T04:35:55.171Z,1009.6
2019-04-26T04:36:55.185Z,1009.6
2019-04-26T04:38:08.303Z,1009.7
2019-04-26T04:39:10.908Z,1009.7
2019-04-26T04:39:55.211Z,1009.6
2019-04-26T04:40:55.235Z,1009.6
2019-04-26T04:41:55.706Z,1009.6
2019-04-26T04:42:55.277Z,1009.7
2019-04-26T04:43:55.360Z,1009.6
2019-04-26T04:44:55.250Z,1009.6
2019-04-26T04:45:55.351Z,1009.7
2019-04-26T04:46:55.278Z,1009.7
2019-04-26T04:47:55.558Z,1009.7
2019-04-26T04:48:55.398Z,1009.7
2019-04-26T04:49:55.412Z,1009.7
2019-04-26T04:50:55.412Z,1009.7
2019-04-26T04:51:55.299Z,1009.7
2019-04-26T04:52:58.349Z,1009.7
2019-04-26T04:53:55.307Z,1009.7
2019-04-26T04:55:06.587Z,1009.7
2019-04-26T04:55:55.365Z,1009.7
2019-04-26T04:56:55.360Z,1009.7
2019-04-26T04:57:55.335Z,1009.7
2019-04-26T04:58:55.464Z,1009.7
2019-04-26T04:59:55.543Z,1009.7
2019-04-26T05:00:55.530Z,1009.7
2019-04-26T05:01:55.565Z,1009.7
2019-04-26T05:02:55.621Z,1009.8
2019-04-26T05:03:55.621Z,1009.7
2019-04-26T05:04:55.669Z,1009.7
2019-04-26T05:06:06.804Z,1009.8
2019-04-26T05:06:55.746Z,1009.8
2019-04-26T05:08:05.342Z,1009.8
2019-04-26T05:08:55.962Z,1009.7
2019-04-26T05:09:55.918Z,1009.7
2019-04-26T05:10:56.007Z,1009.6
2019-04-26T05:11:55.998Z,1009.6
2019-04-26T05:12:56.045Z,1009.7
2019-04-26T05:13:56.058Z,1009.7
2019-04-26T05:14:56.167Z,1009.7
2019-04-26T05:15:56.253Z,1009.7
2019-04-26T05:16:56.265Z,1009.7
2019-04-26T05:17:56.270Z,1009.7
2019-04-26T05:18:56.285Z,1009.6
2019-04-26T05:19:56.372Z,1009.6
2019-04-26T05:20:58.860Z,1009.7
2019-04-26T05:21:56.447Z,1009.7
2019-04-26T05:22:56.505Z,1009.6
2019-04-26T05:23:56.799Z,1009.7
2019-04-26T05:24:56.622Z,1009.7
2019-04-26T05:25:56.660Z,1009.7
2019-04-26T05:26:56.712Z,1009.6
2019-04-26T05:27:57.168Z,1009.6
2019-04-26T05:28:56.797Z,1009.7
2019-04-26T05:29:56.826Z,1009.6
2019-04-26T05:30:56.804Z,1009.6
2019-04-26T05:31:56.880Z,1009.6
2019-04-26T05:32:57.108Z,1009.6
2019-04-26T05:33:57.048Z,1009.7
2019-04-26T05:34:57.014Z,1009.6
2019-04-26T05:35:57.415Z,1009.6
2019-04-26T05:36:57.056Z,1009.6
2019-04-26T05:37:57.324Z,1009.7
2019-04-26T05:38:57.582Z,1009.6
2019-04-26T05:39:57.450Z,1009.7
2019-04-26T05:40:57.778Z,1009.7
2019-04-26T05:41:57.841Z,1009.6
2019-04-26T05:42:57.992Z,1009.6
2019-04-26T05:43:57.993Z,1009.7
2019-04-26T05:44:57.406Z,1009.6
2019-04-26T05:45:58.068Z,1009.6
2019-04-26T05:46:57.880Z,1009.7
2019-04-26T05:48:07.902Z,1009.7
2019-04-26T05:48:57.940Z,1009.7
2019-04-26T05:49:57.957Z,1009.6
2019-04-26T05:50:57.883Z,1009.6
2019-04-26T05:51:57.860Z,1009.6
2019-04-26T05:52:57.739Z,1009.6
2019-04-26T05:53:57.758Z,1009.6
2019-04-26T05:54:58.187Z,1009.6
2019-04-26T05:55:58.043Z,1009.6
2019-04-26T05:56:58.367Z,1009.6
2019-04-26T05:57:58.563Z,1009.5
2019-04-26T05:59:00.263Z,1009.5
2019-04-26T05:59:58.886Z,1009.6
2019-04-26T06:00:57.987Z,1009.6
2019-04-26T06:01:59.003Z,1009.6
2019-04-26T06:02:58.974Z,1009.5
2019-04-26T06:03:58.380Z,1009.6
2019-04-26T06:04:59.190Z,1009.4
2019-04-26T06:05:58.548Z,1009.6
2019-04-26T06:06:59.262Z,1009.6
2019-04-26T06:07:58.508Z,1009.7
2019-04-26T06:08:59.523Z,1009.9
2019-04-26T06:09:58.619Z,1009.9
2019-04-26T06:10:58.278Z,1009.8
2019-04-26T06:11:58.746Z,1009.9
2019-04-26T06:12:58.745Z,1009.9
2019-04-26T06:13:58.458Z,1009.9
2019-04-26T06:14:58.860Z,1010
2019-04-26T06:15:58.402Z,1010
2019-04-26T06:16:59.201Z,1009.9
2019-04-26T06:17:59.652Z,1010
2019-04-26T06:18:59.573Z,1009.9
2019-04-26T06:19:59.431Z,1010
2019-04-26T06:20:59.723Z,1010
2019-04-26T06:21:58.551Z,1010.2
2019-04-26T06:22:59.540Z,1010.2
2019-04-26T06:23:58.638Z,1010.1
2019-04-26T06:24:58.593Z,1010.2
2019-04-26T06:26:01.304Z,1010.1
2019-04-26T06:27:10.911Z,1010.2
2019-04-26T06:27:58.726Z,1010.2
2019-04-26T06:28:59.016Z,1010.2
2019-04-26T06:29:58.861Z,1010.2
2019-04-26T06:30:59.336Z,1010.2
2019-04-26T06:31:58.798Z,1010.2
2019-04-26T06:33:03.093Z,1010.2
2019-04-26T06:33:58.836Z,1010.3
2019-04-26T06:34:59.302Z,1010.3
2019-04-26T06:35:59.292Z,1010.3
2019-04-26T06:36:59.719Z,1010.3
2019-04-26T06:37:59.709Z,1010.3
2019-04-26T06:38:59.861Z,1010.2
2019-04-26T06:39:59.674Z,1010.3
2019-04-26T06:40:58.855Z,1010.2
2019-04-26T06:41:58.839Z,1010.2
2019-04-26T06:42:58.875Z,1010.1
2019-04-26T06:43:58.876Z,1010
2019-04-26T06:44:58.868Z,1010.1
2019-04-26T06:45:58.869Z,1010.1
2019-04-26T06:46:59.786Z,1010.1
2019-04-26T06:47:58.990Z,1010
2019-04-26T06:48:58.962Z,1010
2019-04-26T06:49:58.883Z,1009.9
2019-04-26T06:50:59.786Z,1009.9
2019-04-26T06:51:58.964Z,1010
2019-04-26T06:52:59.153Z,1009.9
2019-04-26T06:53:59.045Z,1009.8
2019-04-26T06:54:59.731Z,1009.8
2019-04-26T06:55:59.205Z,1009.8
2019-04-26T06:57:07.871Z,1009.7
2019-04-26T06:57:59.800Z,1009.7
2019-04-26T06:58:59.310Z,1009.7
2019-04-26T06:59:59.540Z,1009.7
2019-04-26T07:00:59.424Z,1009.6
2019-04-26T07:01:59.517Z,1009.6
2019-04-26T07:02:59.520Z,1009.6
2019-04-26T07:03:59.703Z,1009.6
2019-04-26T07:05:00.683Z,1009.6
2019-04-26T07:06:00.339Z,1009.6
2019-04-26T07:07:00.841Z,1009.6
2019-04-26T07:07:59.865Z,1009.6
2019-04-26T07:09:01.179Z,1009.5
2019-04-26T07:10:00.258Z,1009.6
2019-04-26T07:11:00.646Z,1009.6
2019-04-26T07:12:00.797Z,1009.5
2019-04-26T07:13:00.959Z,1009.5
2019-04-26T07:14:00.592Z,1009.5
2019-04-26T07:15:00.857Z,1009.5
2019-04-26T07:16:01.344Z,1009.4
2019-04-26T07:17:00.680Z,1009.4
2019-04-26T07:18:00.896Z,1009.5
2019-04-26T07:19:01.229Z,1009.4
2019-04-26T07:20:01.272Z,1009.4
2019-04-26T07:21:00.583Z,1009.4
2019-04-26T07:22:00.643Z,1009.4
2019-04-26T07:23:01.765Z,1009.4
2019-04-26T07:24:01.177Z,1009.4
2019-04-26T07:25:01.476Z,1009.3
2019-04-26T07:26:01.638Z,1009.4
2019-04-26T07:27:01.397Z,1009.3
2019-04-26T07:28:04.287Z,1009.3
2019-04-26T07:29:01.419Z,1009.3
2019-04-26T07:30:02.219Z,1009.4
2019-04-26T07:31:01.304Z,1009.2
2019-04-26T07:32:01.863Z,1009.2
2019-04-26T07:33:01.311Z,1009.3
2019-04-26T07:34:02.090Z,1009.3
2019-04-26T07:35:01.166Z,1009.3
2019-04-26T07:36:01.149Z,1009.3
2019-04-26T07:37:01.713Z,1009.4
2019-04-26T07:38:01.287Z,1009.4
2019-04-26T07:39:11.437Z,1009.3
2019-04-26T07:40:01.431Z,1009.2
2019-04-26T07:41:01.535Z,1009.3
2019-04-26T07:42:01.699Z,1009.1
2019-04-26T07:43:01.825Z,1009.2
2019-04-26T07:44:02.590Z,1009.2
2019-04-26T07:45:02.186Z,1009.2
2019-04-26T07:46:02.847Z,1009.2
2019-04-26T07:47:01.502Z,1009.2
2019-04-26T07:48:03.123Z,1009.2
2019-04-26T07:49:02.032Z,1009.2
2019-04-26T07:50:03.421Z,1009.2
2019-04-26T07:51:02.954Z,1009.2
2019-04-26T07:52:02.763Z,1009.3
2019-04-26T07:53:03.193Z,1009.3
2019-04-26T07:54:02.280Z,1009.2
2019-04-26T07:55:03.159Z,1009.2
2019-04-26T07:56:02.289Z,1009.3
2019-04-26T07:57:03.064Z,1009.2
2019-04-26T07:58:03.529Z,1009.3
2019-04-26T07:59:04.171Z,1009.4
2019-04-26T08:00:02.755Z,1009.2
2019-04-26T08:01:02.719Z,1009.3
2019-04-26T08:02:02.012Z,1009.3
2019-04-26T08:03:02.051Z,1009.3
2019-04-26T08:04:03.752Z,1009.3
2019-04-26T08:05:03.261Z,1009.3
2019-04-26T08:06:02.883Z,1009.3
2019-04-26T08:07:02.189Z,1009.3
2019-04-26T08:08:02.285Z,1009.3
2019-04-26T08:09:03.148Z,1009.3
2019-04-26T08:10:03.577Z,1009.2
2019-04-26T08:11:04.338Z,1009.3
2019-04-26T08:12:04.426Z,1009.3
2019-04-26T08:13:02.342Z,1009.2
2019-04-26T08:14:02.430Z,1009.3
2019-04-26T08:15:02.419Z,1009.3
2019-04-26T08:16:02.422Z,1009.3
2019-04-26T08:17:02.575Z,1009.3
2019-04-26T08:18:02.484Z,1009.4
2019-04-26T08:19:02.504Z,1009.4
2019-04-26T08:20:03.366Z,1009.3
2019-04-26T08:21:06.824Z,1009.3
2019-04-26T08:22:12.248Z,1009.4
2019-04-26T08:23:06.499Z,1009.3
2019-04-26T08:24:02.624Z,1009.3
2019-04-26T08:25:02.635Z,1009.4
2019-04-26T08:26:02.612Z,1009.3
2019-04-26T08:27:08.486Z,1009.3
2019-04-26T08:28:02.624Z,1009.2
2019-04-26T08:29:02.625Z,1009.3
2019-04-26T08:30:03.277Z,1009.2
2019-04-26T08:31:04.696Z,1009.2
2019-04-26T08:32:02.689Z,1009.3
2019-04-26T08:33:06.347Z,1009.2
2019-04-26T08:34:02.743Z,1009.2
2019-04-26T08:35:06.695Z,1009.2
2019-04-26T08:36:02.776Z,1009.3
2019-04-26T08:37:03.158Z,1009.2
2019-04-26T08:38:06.526Z,1009.2
2019-04-26T08:39:02.806Z,1009.2
2019-04-26T08:40:02.794Z,1009.3
2019-04-26T08:41:04.866Z,1009.2
2019-04-26T08:42:02.836Z,1009.3
2019-04-26T08:43:02.814Z,1009.2
2019-04-26T08:44:03.452Z,1009.2
2019-04-26T08:45:04.369Z,1009.2
2019-04-26T08:46:03.509Z,1009.2
2019-04-26T08:47:05.929Z,1009.2
2019-04-26T08:48:02.882Z,1009.2
2019-04-26T08:49:06.331Z,1009.2
2019-04-26T08:50:02.930Z,1009.1
2019-04-26T08:51:02.940Z,1009.2
2019-04-26T08:52:14.103Z,1009.2
2019-04-26T08:53:03.105Z,1009.1
2019-04-26T08:54:03.114Z,1009.1
2019-04-26T08:55:03.166Z,1009.2
2019-04-26T08:56:03.222Z,1009.1
2019-04-26T08:57:03.224Z,1009.2
2019-04-26T08:58:03.265Z,1009.2
2019-04-26T08:59:03.391Z,1009.3
2019-04-26T09:00:03.391Z,1009.2
2019-04-26T09:01:03.451Z,1009.2
2019-04-26T09:02:03.590Z,1009.3
2019-04-26T09:03:11.477Z,1009.3
2019-04-26T09:04:03.617Z,1009.2
2019-04-26T09:05:03.684Z,1009.2
2019-04-26T09:06:03.734Z,1009.2
2019-04-26T09:07:03.789Z,1009.2
2019-04-26T09:08:04.040Z,1009.2
2019-04-26T09:09:03.911Z,1009.2
2019-04-26T09:10:11.539Z,1009.2
2019-04-26T09:11:03.907Z,1009.2
2019-04-26T09:12:08.042Z,1009.3
2019-04-26T09:13:03.994Z,1009.2
2019-04-26T09:14:04.059Z,1009.3
2019-04-26T09:15:04.111Z,1009.2
2019-04-26T09:16:04.174Z,1009.4
2019-04-26T09:17:04.312Z,1009.3
2019-04-26T09:18:06.015Z,1009.3
2019-04-26T09:19:04.285Z,1009.3
2019-04-26T09:20:07.759Z,1009.3
2019-04-26T09:21:04.427Z,1009.3
2019-04-26T09:22:12.670Z,1009.5
2019-04-26T09:23:05.017Z,1009.5
2019-04-26T09:24:04.520Z,1009.4
2019-04-26T09:25:06.866Z,1009.5
2019-04-26T09:26:04.665Z,1009.4
2019-04-26T09:27:04.597Z,1009.5
2019-04-26T09:28:04.694Z,1009.4
2019-04-26T09:29:04.702Z,1009.5
2019-04-26T09:30:06.113Z,1009.4
2019-04-26T09:31:04.759Z,1009.5
2019-04-26T09:32:04.728Z,1009.5
2019-04-26T09:33:04.801Z,1009.5
2019-04-26T09:34:06.273Z,1009.6
2019-04-26T09:35:04.865Z,1009.5
2019-04-26T09:36:04.874Z,1009.6
2019-04-26T09:37:04.892Z,1009.4
2019-04-26T09:38:04.929Z,1009.5
2019-04-26T09:39:08.172Z,1009.5
2019-04-26T09:40:10.297Z,1009.4
2019-04-26T09:41:04.998Z,1009.4
2019-04-26T09:42:09.421Z,1009.3
2019-04-26T09:43:05.027Z,1009.3
2019-04-26T09:44:05.074Z,1009.3
2019-04-26T09:45:05.102Z,1009.4
2019-04-26T09:46:05.190Z,1009.4
2019-04-26T09:47:05.242Z,1009.3
2019-04-26T09:48:05.183Z,1009.4
2019-04-26T09:49:06.913Z,1009.3
2019-04-26T09:50:05.253Z,1009.3
2019-04-26T09:51:05.274Z,1009.4
2019-04-26T09:52:05.332Z,1009.4
2019-04-26T09:53:05.396Z,1009.4
2019-04-26T09:54:05.425Z,1009.5
2019-04-26T09:55:05.430Z,1009.4
2019-04-26T09:56:05.480Z,1009.4
2019-04-26T09:57:05.474Z,1009.5
2019-04-26T09:58:05.508Z,1009.5
2019-04-26T09:59:05.854Z,1009.4
2019-04-26T10:00:05.571Z,1009.4
2019-04-26T10:01:06.237Z,1009.4
2019-04-26T10:02:05.613Z,1009.4
2019-04-26T10:03:09.289Z,1009.5
2019-04-26T10:04:05.663Z,1009.4
2019-04-26T10:05:07.944Z,1009.4
2019-04-26T10:06:08.044Z,1009.4
2019-04-26T10:07:05.739Z,1009.4
2019-04-26T10:08:08.213Z,1009.3
2019-04-26T10:09:05.768Z,1009.3
2019-04-26T10:10:05.816Z,1009.3
2019-04-26T10:11:09.458Z,1009.2
2019-04-26T10:12:05.817Z,1009.2
2019-04-26T10:13:05.848Z,1009.3
2019-04-26T10:14:05.852Z,1009.2
2019-04-26T10:15:06.054Z,1009.1
2019-04-26T10:16:05.895Z,1009.2
2019-04-26T10:17:05.935Z,1009.2
2019-04-26T10:18:08.107Z,1009.2
2019-04-26T10:19:05.924Z,1009.2
2019-04-26T10:20:05.952Z,1009.1
2019-04-26T10:21:05.937Z,1009.1
2019-04-26T10:22:05.956Z,1009
2019-04-26T10:23:06.017Z,1009.2
2019-04-26T10:24:08.271Z,1009.1
2019-04-26T10:25:07.215Z,1009.1
2019-04-26T10:26:05.947Z,1009.2
2019-04-26T10:27:05.986Z,1009.1
2019-04-26T10:28:05.972Z,1009.1
2019-04-26T10:29:05.989Z,1009.2
2019-04-26T10:30:08.803Z,1009.1
2019-04-26T10:31:06.038Z,1009.1
2019-04-26T10:32:06.117Z,1009.1
2019-04-26T10:33:06.176Z,1009.1
2019-04-26T10:34:07.635Z,1009
2019-04-26T10:35:06.217Z,1009
2019-04-26T10:36:06.281Z,1009.1
2019-04-26T10:37:07.803Z,1009.1
2019-04-26T10:38:06.409Z,1009
2019-04-26T10:39:06.434Z,1009.1
2019-04-26T10:40:06.543Z,1009.1
2019-04-26T10:41:06.541Z,1009
2019-04-26T10:42:06.563Z,1009
2019-04-26T10:43:06.578Z,1009.1
2019-04-26T10:44:09.496Z,1009.2
2019-04-26T10:45:06.671Z,1009.2
2019-04-26T10:46:06.740Z,1009.1
2019-04-26T10:47:06.763Z,1009.1
2019-04-26T10:48:09.454Z,1009.2
2019-04-26T10:49:09.025Z,1009.1
2019-04-26T10:50:06.910Z,1009.1
2019-04-26T10:51:07.493Z,1009.1
2019-04-26T10:52:06.939Z,1009
2019-04-26T10:53:06.982Z,1009
2019-04-26T10:54:07.653Z,1009
2019-04-26T10:55:07.098Z,1009
2019-04-26T10:56:07.139Z,1008.9
2019-04-26T10:57:07.201Z,1008.9
2019-04-26T10:58:07.223Z,1009
2019-04-26T10:59:09.725Z,1009
2019-04-26T11:00:07.306Z,1008.9
2019-04-26T11:01:07.316Z,1009
2019-04-26T11:02:07.354Z,1009
2019-04-26T11:03:07.412Z,1008.9
2019-04-26T11:04:07.470Z,1009
2019-04-26T11:05:07.525Z,1009
2019-04-26T11:06:07.544Z,1009
2019-04-26T11:07:07.599Z,1009
2019-04-26T11:08:07.663Z,1009
2019-04-26T11:09:07.694Z,1009
2019-04-26T11:10:07.703Z,1009
2019-04-26T11:11:07.741Z,1008.9
2019-04-26T11:12:08.789Z,1008.9
2019-04-26T11:13:07.986Z,1008.9
2019-04-26T11:14:07.881Z,1008.9
2019-04-26T11:15:07.895Z,1008.9
2019-04-26T11:16:08.898Z,1008.8
2019-04-26T11:17:11.366Z,1008.8
2019-04-26T11:18:07.947Z,1008.9
2019-04-26T11:19:08.032Z,1008.8
2019-04-26T11:20:10.298Z,1008.7
2019-04-26T11:21:08.058Z,1008.7
2019-04-26T11:22:08.105Z,1008.7
2019-04-26T11:23:11.610Z,1008.7
2019-04-26T11:24:08.163Z,1008.7
2019-04-26T11:25:08.182Z,1008.8
2019-04-26T11:26:08.222Z,1008.8
2019-04-26T11:27:09.539Z,1008.7
2019-04-26T11:28:08.278Z,1008.8
2019-04-26T11:29:08.351Z,1008.8
2019-04-26T11:30:12.014Z,1008.8
2019-04-26T11:31:08.414Z,1008.9
2019-04-26T11:32:08.473Z,1008.8
2019-04-26T11:33:10.945Z,1008.8
2019-04-26T11:34:08.515Z,1008.8
2019-04-26T11:35:08.564Z,1008.7
2019-04-26T11:36:08.820Z,1008.7
2019-04-26T11:37:08.579Z,1008.7
2019-04-26T11:38:08.654Z,1008.7
2019-04-26T11:39:08.738Z,1008.7
2019-04-26T11:40:10.138Z,1008.7
2019-04-26T11:41:08.756Z,1008.7
2019-04-26T11:42:11.707Z,1008.7
2019-04-26T11:43:08.724Z,1008.8
2019-04-26T11:44:08.738Z,1008.6
2019-04-26T11:45:10.640Z,1008.7
2019-04-26T11:46:08.793Z,1008.6
2019-04-26T11:47:08.878Z,1008.6
2019-04-26T11:48:08.796Z,1008.6
2019-04-26T11:49:08.824Z,1008.5
2019-04-26T11:50:12.337Z,1008.6
2019-04-26T11:51:08.879Z,1008.6
2019-04-26T11:52:08.892Z,1008.5
2019-04-26T11:53:10.068Z,1008.5
2019-04-26T11:54:08.897Z,1008.6
2019-04-26T11:55:09.024Z,1008.5
2019-04-26T11:56:09.051Z,1008.5
2019-04-26T11:57:11.957Z,1008.5
2019-04-26T11:58:09.010Z,1008.6
2019-04-26T11:59:09.035Z,1008.6
2019-04-26T12:00:09.053Z,1008.6
2019-04-26T12:01:09.039Z,1008.6
2019-04-26T12:02:12.156Z,1008.6
2019-04-26T12:03:09.145Z,1008.6
2019-04-26T12:04:09.111Z,1008.6
2019-04-26T12:05:09.108Z,1008.5
2019-04-26T12:06:11.614Z,1008.4
2019-04-26T12:07:09.156Z,1008.5
2019-04-26T12:08:09.170Z,1008.4
2019-04-26T12:09:09.181Z,1008.5
2019-04-26T12:10:09.706Z,1008.5
2019-04-26T12:11:18.086Z,1008.5
2019-04-26T12:12:12.900Z,1008.5
2019-04-26T12:13:09.205Z,1008.5
2019-04-26T12:14:19.538Z,1008.5
2019-04-26T12:15:10.197Z,1008.5
2019-04-26T12:16:09.900Z,1008.5
2019-04-26T12:17:09.222Z,1008.5
2019-04-26T12:18:11.111Z,1008.5
2019-04-26T12:19:09.355Z,1008.5
2019-04-26T12:20:11.637Z,1008.4
2019-04-26T12:21:09.238Z,1008.4
2019-04-26T12:22:09.933Z,1008.5
2019-04-26T12:23:09.253Z,1008.5
2019-04-26T12:24:09.246Z,1008.5
2019-04-26T12:25:09.339Z,1008.6
2019-04-26T12:26:09.373Z,1008.6
2019-04-26T12:27:10.293Z,1008.6
2019-04-26T12:28:09.499Z,1008.7
2019-04-26T12:29:10.426Z,1008.9
2019-04-26T12:30:09.578Z,1008.9
2019-04-26T12:31:09.671Z,1009
2019-04-26T12:32:09.686Z,1009.1